createdAt,value
2023-05-05T00:01:57.509Z,5.80
2023-05-05T00:04:30.436Z,5.70
2023-05-05T00:07:03.472Z,5.80
2023-05-05T00:09:36.672Z,6.30
2023-05-05T00:12:11.685Z,6.40
2023-05-05T00:14:44.772Z,6.10
2023-05-05T00:17:17.629Z,6.40
2023-05-05T00:19:50.566Z,6.60
2023-05-05T00:22:23.526Z,6.90
2023-05-05T00:24:56.603Z,6.30
2023-05-05T00:27:29.519Z,7.40
2023-05-05T00:30:02.575Z,6.50
2023-05-05T00:32:35.372Z,6.50
2023-05-05T00:35:11.835Z,6.60
2023-05-05T00:37:44.672Z,6.50
2023-05-05T00:40:18.636Z,6.70
2023-05-05T00:42:52.606Z,7.00
2023-05-05T00:45:25.516Z,6.50
2023-05-05T00:48:01.299Z,7.10
2023-05-05T00:50:34.937Z,6.30
2023-05-05T00:53:10.166Z,6.40
2023-05-05T00:55:43.921Z,6.70
2023-05-05T00:58:17.310Z,6.90
2023-05-05T01:00:50.726Z,6.90
2023-05-05T01:03:24.188Z,6.80
2023-05-05T01:06:05.935Z,6.20
2023-05-05T01:08:48.313Z,6.80
2023-05-05T01:11:27.643Z,7.10
2023-05-05T01:14:10.177Z,6.70
2023-05-05T01:16:53.124Z,7.20
2023-05-05T01:19:51.266Z,7.00
2023-05-05T01:22:30.171Z,6.60
2023-05-05T01:25:28.525Z,7.20
2023-05-05T01:31:11.219Z,6.60
2023-05-05T01:33:49.692Z,7.10
2023-05-05T01:36:27.956Z,6.80
2023-05-05T01:39:03.609Z,6.70
2023-05-05T01:41:44.507Z,6.80
2023-05-05T01:44:20.090Z,7.10
2023-05-05T01:46:56.061Z,7.30
2023-05-05T01:49:30.049Z,7.20
2023-05-05T01:52:05.282Z,7.10
2023-05-05T01:54:40.837Z,7.50
2023-05-05T01:57:15.745Z,7.70
2023-05-05T01:59:48.570Z,7.10
2023-05-05T02:02:25.482Z,6.80
2023-05-05T02:05:00.379Z,7.20
2023-05-05T02:07:34.456Z,8.00
2023-05-05T02:10:09.893Z,8.10
2023-05-05T02:12:46.859Z,7.30
2023-05-05T02:15:20.149Z,7.20
2023-05-05T02:17:54.506Z,7.20
2023-05-05T02:20:29.028Z,7.50
2023-05-05T02:23:09.001Z,7.50
2023-05-05T02:25:45.943Z,7.70
2023-05-05T02:28:24.788Z,8.20
2023-05-05T02:31:00.853Z,7.90
2023-05-05T02:33:36.921Z,7.30
2023-05-05T02:36:15.960Z,6.90
2023-05-05T02:38:51.123Z,6.50
2023-05-05T02:41:27.027Z,6.90
2023-05-05T02:44:02.002Z,7.20
2023-05-05T02:46:34.636Z,7.10
2023-05-05T02:49:08.464Z,7.50
2023-05-05T02:51:41.252Z,7.40
2023-05-05T02:54:14.245Z,8.10
2023-05-05T02:56:51.071Z,7.50
2023-05-05T02:59:34.757Z,7.00
2023-05-05T03:02:16.952Z,7.10
2023-05-05T03:04:54.864Z,7.10
2023-05-05T03:07:32.463Z,7.30
2023-05-05T03:10:11.424Z,7.40
2023-05-05T03:12:50.773Z,8.90
2023-05-05T03:15:27.752Z,7.30
2023-05-05T03:18:01.947Z,7.10
2023-05-05T03:20:35.631Z,6.80
2023-05-05T03:23:09.783Z,7.00
2023-05-05T03:25:47.536Z,7.30
2023-05-05T03:28:21.054Z,7.80
2023-05-05T03:30:54.418Z,7.80
2023-05-05T03:33:27.247Z,8.10
2023-05-05T03:36:00.431Z,7.60
2023-05-05T03:38:33.255Z,8.30
2023-05-05T03:41:06.217Z,8.00
2023-05-05T03:43:41.562Z,7.10
2023-05-05T03:46:15.953Z,8.00
2023-05-05T03:48:50.290Z,7.50
2023-05-05T03:51:23.775Z,7.80
2023-05-05T03:53:56.694Z,8.20
2023-05-05T03:56:29.956Z,8.00
2023-05-05T03:59:02.787Z,8.00
2023-05-05T04:01:36.031Z,7.90
2023-05-05T04:04:13.252Z,7.50
2023-05-05T04:06:46.089Z,7.90
2023-05-05T04:09:19.128Z,7.70
2023-05-05T04:11:52.077Z,7.80
2023-05-05T04:14:38.937Z,7.90
2023-05-05T04:17:13.458Z,8.60
2023-05-05T04:19:46.287Z,8.80
2023-05-05T04:22:58.195Z,9.00
2023-05-05T04:25:42.861Z,9.40
2023-05-05T04:28:16.048Z,9.30
2023-05-05T04:30:53.389Z,8.70
2023-05-05T04:33:27.560Z,9.20
2023-05-05T04:36:00.421Z,8.90
2023-05-05T04:38:34.041Z,8.70
2023-05-05T04:41:10.176Z,9.20
2023-05-05T04:43:43.910Z,8.50
2023-05-05T04:46:17.098Z,8.30
2023-05-05T04:48:54.006Z,8.60
2023-05-05T04:51:27.844Z,8.50
2023-05-05T04:54:01.194Z,8.60
2023-05-05T04:56:35.309Z,6.90
2023-05-05T04:59:09.371Z,8.50
2023-05-05T05:01:42.703Z,6.50
2023-05-05T05:04:20.051Z,8.40
2023-05-05T05:06:52.813Z,8.70
2023-05-05T05:09:26.373Z,9.70
2023-05-05T05:12:03.163Z,7.70
2023-05-05T05:15:16.120Z,8.80
2023-05-05T05:18:02.416Z,8.60
2023-05-05T05:20:35.498Z,8.80
2023-05-05T05:23:08.413Z,9.00
2023-05-05T05:25:43.997Z,8.80
2023-05-05T05:28:16.684Z,8.60
2023-05-05T05:30:50.488Z,8.50
2023-05-05T05:33:23.085Z,8.00
2023-05-05T05:35:56.042Z,8.70
2023-05-05T05:38:29.024Z,8.30
2023-05-05T05:41:25.231Z,8.20
2023-05-05T05:44:11.657Z,8.30
2023-05-05T05:46:51.997Z,7.80
2023-05-05T05:49:41.480Z,7.70
2023-05-05T05:52:18.214Z,9.60
2023-05-05T05:55:27.920Z,7.50
2023-05-05T05:58:25.233Z,8.00
2023-05-05T06:01:12.149Z,8.30
2023-05-05T06:04:34.368Z,7.70
2023-05-05T06:07:35.497Z,8.00
2023-05-05T06:13:22.589Z,7.90
2023-05-05T06:16:44.478Z,8.30
2023-05-05T06:19:54.067Z,8.00
2023-05-05T06:22:27.807Z,7.30
2023-05-05T06:25:01.299Z,6.70
2023-05-05T06:27:40.855Z,7.10
2023-05-05T06:30:26.725Z,6.90
2023-05-05T06:33:00.122Z,7.40
2023-05-05T06:35:33.589Z,7.40
2023-05-05T06:38:07.715Z,6.80
2023-05-05T06:40:49.584Z,7.60
2023-05-05T06:43:27.411Z,7.10
2023-05-05T06:46:00.316Z,7.10
2023-05-05T06:48:47.638Z,7.10
2023-05-05T06:51:24.474Z,6.90
2023-05-05T06:53:57.816Z,7.10
2023-05-05T06:56:32.019Z,7.20
2023-05-05T06:59:05.034Z,7.00
2023-05-05T07:01:52.218Z,6.70
2023-05-05T07:04:27.058Z,6.60
2023-05-05T07:07:00.299Z,6.50
2023-05-05T07:09:33.208Z,6.80
2023-05-05T07:12:06.541Z,7.40
2023-05-05T07:14:42.855Z,6.30
2023-05-05T07:17:16.091Z,6.60
2023-05-05T07:20:00.042Z,6.50
2023-05-05T07:22:32.871Z,6.70
2023-05-05T07:25:07.151Z,6.60
2023-05-05T07:27:44.486Z,6.30
2023-05-05T07:30:19.191Z,5.70
2023-05-05T07:32:52.997Z,5.90
2023-05-05T07:35:26.735Z,5.70
2023-05-05T07:37:59.606Z,6.20
2023-05-05T07:40:36.926Z,5.60
2023-05-05T07:43:13.085Z,5.50
2023-05-05T07:45:47.241Z,6.30
2023-05-05T07:48:20.151Z,6.00
2023-05-05T07:50:53.446Z,5.50
2023-05-05T07:53:26.478Z,5.60
2023-05-05T07:56:01.607Z,5.60
2023-05-05T07:58:34.888Z,5.50
2023-05-05T08:01:11.882Z,5.00
2023-05-05T08:03:45.916Z,5.10
2023-05-05T08:06:22.462Z,5.20
2023-05-05T08:08:56.261Z,4.90
2023-05-05T08:11:29.918Z,4.90
2023-05-05T08:14:03.282Z,5.60
2023-05-05T08:16:36.645Z,5.30
2023-05-05T08:19:29.138Z,4.90
2023-05-05T08:22:03.373Z,4.50
2023-05-05T08:24:36.839Z,4.40
2023-05-05T08:27:11.427Z,4.00
2023-05-05T08:29:45.353Z,4.80
2023-05-05T08:32:18.884Z,4.80
2023-05-05T08:34:52.622Z,4.70
2023-05-05T08:37:26.237Z,4.90
2023-05-05T08:40:01.840Z,5.20
2023-05-05T08:42:38.654Z,4.90
2023-05-05T08:45:14.773Z,5.20
2023-05-05T08:47:48.478Z,4.70
2023-05-05T08:50:24.576Z,4.50
2023-05-05T08:53:03.934Z,4.90
2023-05-05T08:55:40.771Z,4.70
2023-05-05T08:58:15.499Z,4.50
2023-05-05T09:00:49.100Z,5.10
2023-05-05T09:03:22.689Z,4.80
2023-05-05T09:05:56.304Z,4.60
2023-05-05T09:08:29.658Z,4.50
2023-05-05T09:11:04.003Z,4.80
2023-05-05T09:13:37.131Z,4.30
2023-05-05T09:16:14.707Z,4.60
2023-05-05T09:18:47.777Z,4.30
2023-05-05T09:21:26.112Z,4.60
2023-05-05T09:24:13.025Z,4.50
2023-05-05T09:26:46.911Z,4.70
2023-05-05T09:29:24.599Z,4.40
2023-05-05T09:32:08.815Z,4.60
2023-05-05T09:34:45.329Z,4.40
2023-05-05T09:37:30.928Z,4.40
2023-05-05T09:40:03.959Z,5.40
2023-05-05T09:42:38.837Z,5.50
2023-05-05T09:45:28.640Z,6.40
2023-05-05T09:48:01.992Z,5.40
2023-05-05T09:50:45.621Z,5.40
2023-05-05T09:53:18.749Z,5.00
2023-05-05T09:56:01.213Z,4.50
2023-05-05T09:58:35.733Z,4.30
2023-05-05T10:01:22.895Z,5.00
2023-05-05T10:03:56.190Z,5.00
2023-05-05T10:06:44.265Z,4.60
2023-05-05T10:09:19.635Z,4.60
2023-05-05T10:11:53.531Z,5.00
2023-05-05T10:14:28.445Z,4.50
2023-05-05T10:17:03.173Z,4.30
2023-05-05T10:19:38.190Z,4.80
2023-05-05T10:22:13.435Z,4.30
2023-05-05T10:24:52.520Z,4.10
2023-05-05T10:27:28.004Z,4.90
2023-05-05T10:30:07.618Z,5.10
2023-05-05T10:32:59.392Z,4.60
2023-05-05T10:35:55.106Z,4.40
2023-05-05T10:38:30.271Z,5.10
2023-05-05T10:41:04.627Z,4.70
2023-05-05T10:43:37.575Z,4.70
2023-05-05T10:46:12.207Z,4.70
2023-05-05T10:48:52.799Z,4.20
2023-05-05T10:51:39.850Z,4.00
2023-05-05T10:56:51.813Z,4.00
2023-05-05T10:59:53.425Z,4.40
2023-05-05T11:02:28.301Z,4.20
2023-05-05T11:05:18.241Z,4.50
2023-05-05T11:07:52.660Z,4.10
2023-05-05T11:10:25.537Z,3.90
2023-05-05T11:13:22.377Z,3.80
2023-05-05T11:15:56.376Z,4.80
2023-05-05T11:18:40.324Z,4.70
2023-05-05T11:21:19.310Z,4.30
2023-05-05T11:26:52.525Z,4.10
2023-05-05T11:29:25.457Z,4.20
2023-05-05T11:32:16.864Z,4.00
2023-05-05T11:34:53.529Z,4.20
2023-05-05T11:37:28.316Z,4.10
2023-05-05T11:40:11.877Z,4.10
2023-05-05T11:42:46.582Z,3.80
2023-05-05T11:45:26.074Z,3.50
2023-05-05T11:48:27.432Z,3.20
2023-05-05T11:51:02.459Z,3.70
2023-05-05T11:53:35.473Z,3.50
2023-05-05T11:56:14.310Z,4.00
2023-05-05T11:58:47.904Z,3.40
2023-05-05T12:01:20.629Z,4.00
2023-05-05T12:03:53.836Z,4.10
2023-05-05T12:06:27.821Z,3.90
2023-05-05T12:09:01.290Z,3.90
2023-05-05T12:11:40.002Z,3.80
2023-05-05T12:14:14.622Z,3.70
2023-05-05T12:17:01.749Z,3.90
2023-05-05T12:19:35.039Z,3.90
2023-05-05T12:22:07.918Z,4.10
2023-05-05T12:24:40.803Z,4.20
2023-05-05T12:27:18.949Z,3.70
2023-05-05T12:29:52.643Z,3.90
2023-05-05T12:32:28.132Z,4.00
2023-05-05T12:35:02.210Z,3.50
2023-05-05T12:37:35.225Z,4.00
2023-05-05T12:40:29.682Z,3.50
2023-05-05T12:43:02.892Z,2.90
2023-05-05T12:45:35.855Z,3.20
2023-05-05T12:48:24.611Z,3.60
2023-05-05T12:51:12.125Z,3.30
2023-05-05T12:53:45.825Z,3.20
2023-05-05T12:56:36.061Z,3.10
2023-05-05T12:59:10.106Z,3.30
2023-05-05T13:01:53.744Z,2.90
2023-05-05T13:04:32.204Z,2.60
2023-05-05T13:07:15.858Z,2.70
2023-05-05T13:09:51.668Z,2.90
2023-05-05T13:12:26.204Z,2.70
2023-05-05T13:14:58.985Z,3.00
2023-05-05T13:17:34.088Z,3.00
2023-05-05T13:20:10.112Z,3.10
2023-05-05T13:22:45.067Z,3.10
2023-05-05T13:25:18.581Z,3.00
2023-05-05T13:27:51.573Z,3.90
2023-05-05T13:30:24.559Z,3.90
2023-05-05T13:32:57.426Z,3.60
2023-05-05T13:35:30.130Z,4.10
2023-05-05T13:38:03.064Z,3.60
2023-05-05T13:40:36.055Z,4.10
2023-05-05T13:43:08.897Z,3.80
2023-05-05T13:45:42.168Z,3.90
2023-05-05T13:48:16.327Z,3.90
2023-05-05T13:50:49.181Z,4.00
2023-05-05T13:53:22.798Z,4.30
2023-05-05T13:55:56.021Z,3.80
2023-05-05T13:58:30.611Z,4.10
2023-05-05T14:01:03.302Z,3.60
2023-05-05T14:03:36.396Z,3.90
2023-05-05T14:06:10.508Z,3.30
2023-05-05T14:08:46.368Z,3.40
2023-05-05T14:11:20.961Z,3.00
2023-05-05T14:13:54.455Z,2.90
2023-05-05T14:16:27.117Z,2.90
2023-05-05T14:19:00.416Z,2.50
2023-05-05T14:21:34.165Z,2.60
2023-05-05T14:24:08.119Z,2.80
2023-05-05T14:26:41.474Z,3.10
2023-05-05T14:29:15.856Z,3.40
2023-05-05T14:31:49.922Z,3.60
2023-05-05T14:34:23.301Z,3.60
2023-05-05T14:36:58.427Z,3.10
2023-05-05T14:39:31.281Z,3.60
2023-05-05T14:42:04.426Z,3.40
2023-05-05T14:44:37.246Z,3.50
2023-05-05T14:47:10.185Z,3.60
2023-05-05T14:49:44.339Z,3.90
2023-05-05T14:52:19.620Z,4.30
2023-05-05T14:54:52.456Z,3.50
2023-05-05T14:57:25.986Z,4.00
2023-05-05T15:00:02.426Z,3.70
2023-05-05T15:02:36.657Z,4.00
2023-05-05T15:05:10.999Z,3.60
2023-05-05T15:07:47.492Z,3.80
2023-05-05T15:10:21.969Z,3.70
2023-05-05T15:12:55.486Z,3.60
2023-05-05T15:15:28.733Z,3.70
2023-05-05T15:18:02.952Z,3.60
2023-05-05T15:20:35.779Z,3.70
2023-05-05T15:23:09.741Z,3.30
2023-05-05T15:25:44.774Z,3.60
2023-05-05T15:28:20.103Z,3.40
2023-05-05T15:30:52.741Z,3.60
2023-05-05T15:33:25.679Z,4.00
2023-05-05T15:35:58.777Z,4.10
2023-05-05T15:38:32.879Z,3.60
2023-05-05T15:41:07.868Z,3.40
2023-05-05T15:43:41.302Z,3.20
2023-05-05T15:46:17.356Z,3.50
2023-05-05T15:48:52.863Z,3.20
2023-05-05T15:51:25.747Z,3.50
2023-05-05T15:53:59.799Z,3.40
2023-05-05T15:56:56.748Z,4.30
2023-05-05T15:59:29.981Z,4.70
2023-05-05T16:02:03.161Z,4.20
2023-05-05T16:04:36.727Z,4.90
2023-05-05T16:07:10.238Z,3.70
2023-05-05T16:09:47.555Z,3.20
2023-05-05T16:12:21.065Z,3.10
2023-05-05T16:14:56.598Z,3.50
2023-05-05T16:17:29.518Z,3.80
2023-05-05T16:20:02.536Z,3.90
2023-05-05T16:22:35.772Z,3.70
2023-05-05T16:25:10.645Z,3.50
2023-05-05T16:27:44.601Z,3.90
2023-05-05T16:30:18.610Z,4.20
2023-05-05T16:32:54.936Z,3.70
2023-05-05T16:35:27.838Z,3.40
2023-05-05T16:38:00.926Z,4.00
2023-05-05T16:40:33.732Z,3.70
2023-05-05T16:43:06.676Z,3.70
2023-05-05T16:45:39.580Z,3.80
2023-05-05T16:48:15.054Z,3.80
2023-05-05T16:50:50.038Z,4.40
2023-05-05T16:53:23.003Z,4.10
2023-05-05T16:55:56.076Z,4.20
2023-05-05T16:58:29.228Z,4.20
2023-05-05T17:01:03.522Z,4.40
2023-05-05T17:03:36.295Z,4.40
2023-05-05T17:06:09.776Z,4.50
2023-05-05T17:08:44.466Z,4.40
2023-05-05T17:11:17.756Z,4.70
2023-05-05T17:13:50.475Z,5.20
2023-05-05T17:16:23.274Z,4.70
2023-05-05T17:18:56.558Z,5.40
2023-05-05T17:21:29.458Z,5.50
2023-05-05T17:24:02.605Z,5.10
2023-05-05T17:26:35.498Z,6.30
2023-05-05T17:29:09.248Z,5.60
2023-05-05T17:31:54.236Z,5.20
2023-05-05T17:34:31.512Z,5.10
2023-05-05T17:37:06.651Z,5.40
2023-05-05T17:39:39.648Z,5.20
2023-05-05T17:42:12.308Z,5.70
2023-05-05T17:44:47.698Z,5.20
2023-05-05T17:47:25.687Z,6.40
2023-05-05T17:50:10.870Z,6.30
2023-05-05T17:52:45.184Z,5.10
2023-05-05T17:55:18.648Z,5.40
2023-05-05T17:57:51.827Z,5.20
2023-05-05T18:00:26.682Z,6.60
2023-05-05T18:03:01.008Z,5.50
2023-05-05T18:05:35.631Z,5.90
2023-05-05T18:08:08.840Z,7.00
2023-05-05T18:10:45.752Z,5.70
2023-05-05T18:13:20.159Z,7.10
2023-05-05T18:15:55.058Z,6.60
2023-05-05T18:18:29.637Z,6.50
2023-05-05T18:21:18.514Z,7.40
2023-05-05T18:24:23.962Z,6.70
2023-05-05T18:27:23.690Z,6.40
2023-05-05T18:30:23.566Z,6.60
2023-05-05T18:32:56.954Z,6.60
2023-05-05T18:35:32.573Z,6.60
2023-05-05T18:38:54.056Z,6.80
2023-05-05T18:41:36.788Z,6.50
2023-05-05T18:44:36.210Z,6.70
2023-05-05T18:47:27.858Z,7.10
2023-05-05T18:50:17.364Z,7.90
2023-05-05T18:53:06.191Z,6.70
2023-05-05T18:55:49.265Z,6.70
2023-05-05T18:58:36.741Z,7.50
2023-05-05T19:01:30.539Z,7.30
2023-05-05T19:04:30.127Z,7.50
2023-05-05T19:07:07.562Z,7.10
2023-05-05T19:09:44.595Z,7.40
2023-05-05T19:12:19.328Z,8.00
2023-05-05T19:14:53.829Z,7.90
2023-05-05T19:17:27.085Z,8.50
2023-05-05T19:20:01.801Z,9.20
2023-05-05T19:22:34.784Z,8.60
2023-05-05T19:25:09.570Z,8.50
2023-05-05T19:27:42.897Z,9.30
2023-05-05T19:30:19.468Z,9.80
2023-05-05T19:32:52.375Z,10.00
2023-05-05T19:35:26.475Z,9.70
2023-05-05T19:38:02.930Z,9.40
2023-05-05T19:40:36.337Z,10.10
2023-05-05T19:43:09.204Z,10.70
2023-05-05T19:45:42.285Z,10.90
2023-05-05T19:48:16.872Z,8.60
2023-05-05T19:50:54.161Z,10.20
2023-05-05T19:53:27.906Z,10.70
2023-05-05T19:56:01.357Z,10.20
2023-05-05T19:58:35.631Z,11.40
2023-05-05T20:01:08.902Z,10.90
2023-05-05T20:03:41.801Z,11.20
2023-05-05T20:06:16.374Z,10.30
2023-05-05T20:08:51.764Z,10.90
2023-05-05T20:11:26.893Z,10.00
2023-05-05T20:13:59.985Z,10.10
2023-05-05T20:16:33.754Z,10.30
2023-05-05T20:19:06.774Z,9.80
2023-05-05T20:21:41.315Z,10.80
2023-05-05T20:24:14.588Z,10.20
2023-05-05T20:26:50.557Z,10.60
2023-05-05T20:29:27.825Z,10.70
2023-05-05T20:32:00.921Z,10.00
2023-05-05T20:34:34.206Z,10.00
2023-05-05T20:37:07.246Z,10.30
2023-05-05T20:39:42.349Z,10.10
2023-05-05T20:42:17.012Z,10.10
2023-05-05T20:44:50.521Z,10.50
2023-05-05T20:47:24.471Z,10.00
2023-05-05T20:49:57.972Z,9.80
2023-05-05T20:52:30.962Z,10.70
2023-05-05T20:55:04.038Z,10.90
2023-05-05T20:57:37.070Z,10.30
2023-05-05T21:00:12.091Z,9.70
2023-05-05T21:02:46.064Z,10.00
2023-05-05T21:05:20.452Z,9.80
2023-05-05T21:07:54.547Z,9.80
2023-05-05T21:10:29.063Z,10.60
2023-05-05T21:13:11.819Z,9.80
2023-05-05T21:15:45.336Z,10.00
2023-05-05T21:18:18.412Z,10.10
2023-05-05T21:20:53.344Z,8.40
2023-05-05T21:23:26.283Z,8.40
2023-05-05T21:25:59.319Z,7.50
2023-05-05T21:28:32.528Z,7.20
2023-05-05T21:31:21.077Z,6.90
2023-05-05T21:33:56.236Z,7.20
2023-05-05T21:36:30.191Z,6.30
2023-05-05T21:39:03.694Z,5.90
2023-05-05T21:41:37.336Z,5.30
2023-05-05T21:44:10.448Z,6.10
2023-05-05T21:46:44.505Z,5.50
2023-05-05T21:49:20.722Z,5.30
2023-05-05T21:51:53.713Z,5.30
2023-05-05T21:54:26.989Z,5.10
2023-05-05T21:57:00.299Z,5.00
2023-05-05T21:59:33.599Z,5.00
2023-05-05T22:02:06.975Z,5.00
2023-05-05T22:04:40.786Z,4.90
2023-05-05T22:07:15.812Z,4.70
2023-05-05T22:09:50.501Z,5.10
2023-05-05T22:12:23.440Z,5.40
2023-05-05T22:14:56.764Z,5.60
2023-05-05T22:17:29.799Z,5.10
2023-05-05T22:20:02.939Z,5.20
2023-05-05T22:22:35.789Z,5.10
2023-05-05T22:25:10.061Z,5.80
2023-05-05T22:27:43.014Z,5.30
2023-05-05T22:30:17.384Z,4.90
2023-05-05T22:32:50.555Z,5.50
2023-05-05T22:35:23.893Z,5.00
2023-05-05T22:37:57.019Z,4.90
2023-05-05T22:40:30.051Z,5.30
2023-05-05T22:43:03.522Z,4.70
2023-05-05T22:45:36.705Z,5.20
2023-05-05T22:48:12.499Z,5.80
2023-05-05T22:50:46.649Z,5.30
2023-05-05T22:53:20.495Z,5.20
2023-05-05T22:55:54.490Z,5.00
2023-05-05T22:58:28.302Z,5.00
2023-05-05T23:01:02.696Z,5.50
2023-05-05T23:03:35.742Z,5.50
2023-05-05T23:06:10.677Z,5.60
2023-05-05T23:08:44.771Z,5.50
2023-05-05T23:11:21.080Z,5.90
2023-05-05T23:13:54.401Z,5.60
2023-05-05T23:16:27.605Z,5.60
2023-05-05T23:19:00.820Z,6.00
2023-05-05T23:21:38.909Z,6.00
2023-05-05T23:24:19.382Z,6.10
2023-05-05T23:26:53.340Z,5.90
2023-05-05T23:29:26.116Z,6.10
2023-05-05T23:32:09.039Z,5.70
2023-05-05T23:34:41.937Z,6.20
2023-05-05T23:40:40.029Z,6.20
2023-05-05T23:43:19.825Z,7.00
2023-05-05T23:46:05.896Z,6.80
2023-05-05T23:48:35.439Z,6.80
2023-05-05T23:51:05.887Z,6.80
2023-05-05T23:53:35.452Z,6.50
2023-05-05T23:56:05.880Z,6.50
2023-05-05T23:58:35.380Z,6.70
